UPSVAC Airport Information Service

Madrid / Barajas

ICAO: LEMD Country: Spain, EU
Latitude: 40.4936 Longitude: -3.56676
Latest Arrival : ABR1443(B) (EDDK-LEMD) Latest Departure : ABR2239(A) (LEMD-EGNX)


WX CaptureLIVE
Data provided by noaa.gov | Fetched at 20:49:51

METAR : LEMD 272030Z VRB01KT CAVOK 10/04 Q1020 NOSIG

TAF : LEMD 271700Z 2718/2824 VRB05KT CAVOK TX17/2818Z TN01/2806Z BECMG 2810/2812 15010KT


Runway Data for LEMD
Data provided by openaviationdata.com

Runway ID Mag Var Hdg Length Elevation Surface ILS Freq ILS Id ILS Slope
14L -2 144° 12205 ft 1999 ft Asphalt -- -- --
14R -2 144° 13550 ft 1999 ft Asphalt -- -- --
18L -2 182° 12138 ft 1999 ft Asphalt 111.5 IML 3
18R -2 182° 14600 ft 1999 ft Asphalt 110.7 IMR 3
32L -2 324° 13550 ft 1999 ft Asphalt 109.9 MAA 3
32R -2 324° 12205 ft 1999 ft Asphalt 109.1 MBB 3
36L -2 14600 ft 1999 ft Asphalt -- -- --
36R -2 12138 ft 1999 ft Asphalt -- -- --

Madrid / Barajas, Spain, EU
Use only for reference purposes



Not for navigational purposes.